Time;durP1;ratioP1;P1;durP2;ratioP2;P2;SDS_P1;SDS_P2;PMS_P1;PMS_P2;Temp;Humidity;BMP_temperature;BMP_pressure;BME280_temperature;BME280_humidity;BME280_pressure;Samples;Min_cycle;Max_cycle;Signal;HPM_P1;HPM_P2
2022/01/29 00:01:42;;;;;;;15.77;6.57;;;3.80;99.90;;;;;;5104931;28;20043;-88
2022/01/29 00:04:07;;;;;;;16.50;6.60;;;3.80;99.90;;;;;;5105044;28;20024;-88
2022/01/29 00:06:33;;;;;;;15.17;6.60;;;3.80;99.90;;;;;;5103341;28;20023;-88
2022/01/29 00:08:58;;;;;;;17.63;6.93;;;3.80;99.90;;;;;;5104279;28;20031;-90
2022/01/29 00:11:30;;;;;;;15.23;6.43;;;3.70;99.90;;;;;;5116779;28;20380;-91
2022/01/29 00:13:56;;;;;;;16.42;6.43;;;3.70;99.90;;;;;;5115581;28;20028;-90
2022/01/29 00:16:23;;;;;;;17.80;6.40;;;3.70;99.90;;;;;;5115805;28;20039;-91
2022/01/29 00:18:48;;;;;;;15.93;6.57;;;3.70;99.90;;;;;;5115927;28;20043;-91
2022/01/29 00:21:14;;;;;;;13.73;6.33;;;3.70;99.90;;;;;;5114706;28;20023;-91
2022/01/29 00:23:39;;;;;;;18.57;7.37;;;3.70;99.90;;;;;;5115914;28;20015;-92
2022/01/29 00:26:06;;;;;;;16.33;6.77;;;3.70;99.90;;;;;;5114974;28;20047;-92
2022/01/29 00:28:34;;;;;;;14.97;6.73;;;3.70;99.90;;;;;;5115723;28;20066;-91
2022/01/29 00:31:02;;;;;;;16.70;7.40;;;3.80;99.90;;;;;;5115845;28;20024;-91
2022/01/29 00:33:27;;;;;;;18.47;6.70;;;3.80;99.90;;;;;;5115601;28;20028;-91
2022/01/29 00:35:53;;;;;;;15.67;7.10;;;3.80;99.90;;;;;;5116362;28;20034;-91
2022/01/29 00:38:19;;;;;;;18.63;7.37;;;3.70;99.90;;;;;;5115212;28;20039;-91
2022/01/29 00:40:45;;;;;;;17.60;6.73;;;3.70;99.90;;;;;;5116829;28;20015;-91
2022/01/29 00:43:11;;;;;;;16.80;7.43;;;3.70;99.90;;;;;;5115035;28;20124;-90
2022/01/29 00:45:37;;;;;;;14.60;7.43;;;3.60;99.90;;;;;;5116440;28;20024;-90
2022/01/29 00:48:03;;;;;;;17.83;7.40;;;3.70;99.90;;;;;;5115167;28;20031;-90
2022/01/29 00:50:28;;;;;;;18.83;7.87;;;3.70;99.90;;;;;;5116016;28;20477;-91
2022/01/29 00:52:54;;;;;;;18.20;7.57;;;3.60;99.90;;;;;;5116028;28;20092;-91
2022/01/29 00:55:20;;;;;;;19.23;7.33;;;3.60;99.90;;;;;;5114906;28;20024;-91
2022/01/29 00:57:45;;;;;;;17.67;7.47;;;3.70;99.90;;;;;;5116693;28;20035;-90
2022/01/29 01:00:13;;;;;;;17.63;7.37;;;3.60;99.90;;;;;;5114993;28;20080;-91
2022/01/29 01:02:40;;;;;;;15.97;7.73;;;3.60;99.90;;;;;;5115845;28;20028;-91
2022/01/29 01:05:06;;;;;;;15.97;7.23;;;3.60;99.90;;;;;;5114960;28;20026;-91
2022/01/29 01:07:31;;;;;;;17.97;7.83;;;3.70;99.90;;;;;;5116430;28;20023;-91
2022/01/29 01:09:57;;;;;;;16.20;7.00;;;3.70;99.90;;;;;;5115726;28;20031;-91
2022/01/29 01:12:23;;;;;;;14.03;6.57;;;3.70;99.90;;;;;;5115429;28;20023;-91
2022/01/29 01:14:49;;;;;;;15.17;7.43;;;3.70;99.90;;;;;;5115989;28;20027;-90
2022/01/29 01:17:15;;;;;;;19.23;7.07;;;3.70;99.90;;;;;;5114726;28;20028;-91
2022/01/29 01:19:41;;;;;;;17.77;7.93;;;3.70;99.90;;;;;;5114768;28;20040;-91
2022/01/29 01:22:07;;;;;;;13.00;6.73;;;3.70;99.90;;;;;;5113965;28;20028;-91
2022/01/29 01:24:33;;;;;;;13.80;6.50;;;3.70;99.90;;;;;;5115819;28;20047;-91
2022/01/29 01:26:59;;;;;;;17.00;7.10;;;3.70;99.90;;;;;;5114655;28;20051;-91
2022/01/29 01:29:24;;;;;;;17.50;7.70;;;3.70;99.90;;;;;;5114961;28;20034;-91
2022/01/29 01:31:50;;;;;;;16.20;7.10;;;3.70;99.90;;;;;;5114771;28;20024;-91
2022/01/29 01:34:19;;;;;;;16.80;7.10;;;3.70;99.90;;;;;;5113630;28;20488;-92
2022/01/29 01:36:53;;;;;;;18.37;6.70;;;3.70;99.90;;;;;;5114143;28;20115;-91
2022/01/29 01:39:23;;;;;;;15.57;7.03;;;3.70;99.90;;;;;;5115096;28;20028;-91
2022/01/29 01:41:56;;;;;;;16.60;7.17;;;3.70;99.90;;;;;;5114404;28;20045;-91
2022/01/29 01:44:22;;;;;;;16.73;7.13;;;3.70;99.90;;;;;;5114058;28;20020;-92
2022/01/29 01:46:48;;;;;;;16.40;6.90;;;3.70;99.90;;;;;;5114352;28;20035;-90
2022/01/29 01:49:16;;;;;;;14.67;7.47;;;3.70;99.90;;;;;;5113671;28;20483;-89
2022/01/29 01:51:42;;;;;;;16.63;6.30;;;3.70;99.90;;;;;;5115240;28;20121;-90
2022/01/29 01:54:08;;;;;;;18.13;6.60;;;3.70;99.90;;;;;;5115028;28;20111;-88
2022/01/29 01:56:33;;;;;;;17.40;7.60;;;3.70;99.90;;;;;;5113919;28;20069;-89
2022/01/29 01:58:59;;;;;;;14.27;7.00;;;3.60;99.90;;;;;;5113777;28;20024;-90
2022/01/29 02:01:25;;;;;;;12.43;6.37;;;3.60;99.90;;;;;;5113497;28;20024;-89
2022/01/29 02:03:51;;;;;;;16.83;7.40;;;3.60;99.90;;;;;;5113628;28;20529;-89
2022/01/29 02:06:18;;;;;;;14.63;6.13;;;3.60;99.90;;;;;;5114491;28;20099;-89
2022/01/29 02:08:43;;;;;;;15.93;6.37;;;3.50;99.90;;;;;;5114212;28;20023;-89
2022/01/29 02:11:10;;;;;;;14.20;6.27;;;3.50;99.90;;;;;;5113586;28;20026;-89
2022/01/29 02:13:36;;;;;;;13.03;6.33;;;3.40;99.90;;;;;;5113649;28;20069;-89
2022/01/29 02:16:03;;;;;;;12.83;5.80;;;3.40;99.90;;;;;;5113775;28;20051;-88
2022/01/29 02:18:29;;;;;;;12.73;6.10;;;3.40;99.90;;;;;;5114931;28;20476;-89
2022/01/29 02:20:55;;;;;;;11.73;5.60;;;3.40;99.90;;;;;;5113754;28;20020;-89
2022/01/29 02:23:20;;;;;;;16.17;6.67;;;3.40;99.90;;;;;;5113045;28;20035;-89
2022/01/29 02:25:48;;;;;;;13.13;6.47;;;3.40;99.90;;;;;;5122749;27;20083;-89
2022/01/29 02:28:14;;;;;;;15.97;6.20;;;3.40;99.90;;;;;;5116722;27;20024;-89
2022/01/29 02:30:46;;;;;;;15.47;6.63;;;3.40;99.90;;;;;;5116899;28;20535;-89
2022/01/29 02:33:14;;;;;;;10.13;4.57;;;3.40;99.90;;;;;;5116358;28;20463;-89
2022/01/29 02:35:45;;;;;;;17.30;6.93;;;3.40;99.90;;;;;;5134580;27;20279;-89
2022/01/29 02:38:12;;;;;;;15.57;6.20;;;3.40;99.90;;;;;;5116608;28;20386;-89
2022/01/29 02:40:46;;;;;;;17.67;7.53;;;3.30;99.90;;;;;;5117141;28;20030;-89
2022/01/29 02:43:41;;;;;;;16.87;7.03;;;3.30;99.90;;;;;;5116446;28;20028;-89
2022/01/29 02:46:20;;;;;;;18.83;7.50;;;3.30;99.90;;;;;;5116054;28;20028;-89
2022/01/29 02:48:46;;;;;;;16.97;6.87;;;3.30;99.90;;;;;;5135052;28;20143;-88
2022/01/29 02:51:12;;;;;;;15.73;7.50;;;3.30;99.90;;;;;;5134377;28;20023;-89
2022/01/29 02:53:38;;;;;;;18.40;8.23;;;3.30;99.90;;;;;;5134309;28;20027;-89
2022/01/29 02:56:04;;;;;;;20.07;7.97;;;3.30;99.90;;;;;;5134678;28;20032;-89
2022/01/29 02:58:30;;;;;;;17.33;7.93;;;3.30;99.90;;;;;;5116835;28;20027;-89
2022/01/29 03:00:56;;;;;;;19.20;7.80;;;3.20;99.90;;;;;;5116725;28;20027;-88
2022/01/29 03:03:22;;;;;;;18.00;8.10;;;3.20;99.90;;;;;;5116455;28;20034;-89
2022/01/29 03:05:47;;;;;;;19.47;8.63;;;3.20;99.90;;;;;;5134813;28;20030;-89
2022/01/29 03:08:13;;;;;;;17.47;9.43;;;3.20;99.90;;;;;;5116200;28;20049;-89
2022/01/29 03:10:39;;;;;;;20.03;8.77;;;3.10;99.90;;;;;;5116916;28;20028;-89
2022/01/29 03:13:05;;;;;;;21.87;9.20;;;3.20;99.90;;;;;;5100356;28;20032;-85
2022/01/29 03:15:31;;;;;;;19.27;8.53;;;3.20;99.90;;;;;;5113729;28;20084;-87
2022/01/29 03:17:57;;;;;;;20.60;8.43;;;3.20;99.90;;;;;;5096245;28;20027;-87
2022/01/29 03:20:22;;;;;;;17.00;8.07;;;3.20;99.90;;;;;;5113388;28;20036;-87
2022/01/29 03:22:48;;;;;;;21.43;8.50;;;3.20;99.90;;;;;;5114016;28;20043;-87
2022/01/29 03:25:16;;;;;;;20.50;9.33;;;3.20;99.90;;;;;;5095021;28;20056;-87
2022/01/29 03:27:42;;;;;;;19.47;8.30;;;3.10;99.90;;;;;;5098901;28;20034;-87
2022/01/29 03:30:09;;;;;;;22.57;8.60;;;3.10;99.90;;;;;;5099695;28;20020;-87
2022/01/29 03:32:35;;;;;;;19.10;8.40;;;3.20;99.90;;;;;;5099875;28;20491;-88
2022/01/29 03:35:02;;;;;;;17.20;8.17;;;3.20;99.90;;;;;;5117721;28;20039;-86
2022/01/29 03:37:27;;;;;;;19.27;8.40;;;3.20;99.90;;;;;;5099418;28;20180;-86
2022/01/29 03:39:58;;;;;;;19.83;8.77;;;3.10;99.90;;;;;;5099371;28;20055;-86
2022/01/29 03:42:24;;;;;;;19.23;8.37;;;3.10;99.90;;;;;;5099230;28;20046;-86
2022/01/29 03:44:50;;;;;;;20.60;9.30;;;3.10;99.90;;;;;;5117624;28;20028;-87
2022/01/29 03:47:16;;;;;;;19.50;9.20;;;3.10;99.90;;;;;;5098652;28;20027;-86
2022/01/29 03:49:41;;;;;;;17.83;8.50;;;3.10;99.90;;;;;;5099352;28;20032;-86
2022/01/29 03:52:07;;;;;;;21.53;8.77;;;3.10;99.90;;;;;;5117178;28;20028;-86
2022/01/29 03:54:33;;;;;;;18.70;8.13;;;3.10;99.90;;;;;;5099165;28;20059;-86
2022/01/29 03:56:59;;;;;;;19.37;8.27;;;3.10;99.90;;;;;;5098943;28;20027;-84
2022/01/29 03:59:24;;;;;;;21.20;8.80;;;3.00;99.90;;;;;;5116325;28;20079;-84
2022/01/29 04:01:50;;;;;;;22.97;9.10;;;3.00;99.90;;;;;;5098465;28;20051;-85
2022/01/29 04:04:15;;;;;;;18.13;8.33;;;3.00;99.90;;;;;;5098535;28;20023;-84
2022/01/29 04:06:41;;;;;;;19.57;8.97;;;3.00;99.90;;;;;;5098928;28;20032;-85
2022/01/29 04:09:10;;;;;;;22.07;9.03;;;3.00;99.90;;;;;;5098624;28;20480;-84
2022/01/29 04:11:37;;;;;;;22.57;9.23;;;3.00;99.90;;;;;;5099408;28;20034;-85
2022/01/29 04:14:04;;;;;;;17.17;8.60;;;3.00;99.90;;;;;;5117032;28;20020;-85
2022/01/29 04:16:30;;;;;;;21.50;9.10;;;3.00;99.90;;;;;;5097758;28;20066;-84
2022/01/29 04:18:56;;;;;;;21.50;8.53;;;3.00;99.90;;;;;;5098806;28;20462;-85
2022/01/29 04:21:21;;;;;;;20.87;9.00;;;2.90;99.90;;;;;;5097902;28;20038;-84
2022/01/29 04:23:47;;;;;;;28.47;9.57;;;3.00;99.90;;;;;;5116873;28;20069;-84
2022/01/29 04:26:12;;;;;;;20.47;8.77;;;3.00;99.90;;;;;;5097628;28;20054;-84
2022/01/29 04:28:42;;;;;;;21.17;9.07;;;3.00;99.90;;;;;;5099266;28;20078;-82
2022/01/29 04:31:14;;;;;;;24.10;9.30;;;3.00;99.90;;;;;;5098517;28;20061;-82
2022/01/29 04:33:40;;;;;;;21.23;9.50;;;3.00;99.90;;;;;;5098555;28;20024;-82
2022/01/29 04:36:06;;;;;;;20.77;9.17;;;3.00;99.90;;;;;;5116463;28;20062;-82
2022/01/29 04:38:32;;;;;;;20.90;8.53;;;3.00;99.90;;;;;;5115413;28;20024;-82
2022/01/29 04:41:04;;;;;;;18.73;8.30;;;3.00;99.90;;;;;;5116198;28;20102;-82
2022/01/29 04:43:31;;;;;;;22.17;8.15;;;3.00;99.90;;;;;;5098239;28;20024;-82
2022/01/29 04:45:57;;;;;;;18.97;8.37;;;2.90;99.90;;;;;;5098128;28;20023;-82
2022/01/29 04:48:23;;;;;;;22.97;8.27;;;3.00;99.90;;;;;;5097990;28;20040;-83
2022/01/29 04:50:48;;;;;;;17.63;8.13;;;2.90;99.90;;;;;;5098278;28;20024;-82
2022/01/29 04:53:14;;;;;;;18.93;7.87;;;2.90;99.90;;;;;;5097688;28;20562;-83
2022/01/29 04:55:40;;;;;;;19.37;7.13;;;3.00;99.90;;;;;;5097842;28;20388;-81
2022/01/29 04:58:05;;;;;;;17.83;7.53;;;2.90;99.90;;;;;;5098110;28;20027;-87
2022/01/29 05:00:32;;;;;;;16.23;7.30;;;2.90;99.90;;;;;;5097449;28;20028;-86
2022/01/29 05:03:14;;;;;;;15.07;7.40;;;2.90;99.90;;;;;;5097812;28;20027;-86
2022/01/29 05:05:41;;;;;;;12.35;4.85;;;2.90;99.90;;;;;;5098096;28;20431;-86
2022/01/29 05:08:06;;;;;;;18.73;6.80;;;2.90;99.90;;;;;;5115934;28;20076;-85
2022/01/29 05:10:33;;;;;;;14.37;6.77;;;2.90;99.90;;;;;;5097479;28;20222;-86
2022/01/29 05:13:03;;;;;;;15.87;6.43;;;3.00;99.90;;;;;;5098053;28;20024;-86
2022/01/29 05:29:00;;;;;;;17.63;6.83;;;2.90;99.90;;;;;;5115699;28;20042;-86
2022/01/29 05:31:25;;;;;;;15.63;6.77;;;2.90;99.90;;;;;;5115403;28;20110;-86
2022/01/29 05:33:51;;;;;;;16.27;7.60;;;2.90;99.90;;;;;;5115770;28;20035;-86
2022/01/29 05:36:17;;;;;;;17.30;7.33;;;2.90;99.90;;;;;;5097326;28;20441;-87
2022/01/29 05:38:43;;;;;;;18.73;7.57;;;2.90;99.90;;;;;;5097894;28;20019;-86
2022/01/29 05:41:09;;;;;;;23.37;8.03;;;2.80;99.90;;;;;;5097375;28;20472;-86
2022/01/29 05:43:35;;;;;;;19.30;8.30;;;2.80;99.90;;;;;;5096686;28;20028;-86
2022/01/29 05:46:00;;;;;;;17.20;7.67;;;2.80;99.90;;;;;;5097076;28;20023;-87
2022/01/29 05:48:26;;;;;;;17.47;7.57;;;2.80;99.90;;;;;;5096641;28;20039;-84
2022/01/29 05:50:52;;;;;;;18.83;6.77;;;2.80;99.90;;;;;;5096486;28;20028;-84
2022/01/29 05:53:17;;;;;;;18.13;7.43;;;2.80;99.90;;;;;;5096737;28;20027;-85
2022/01/29 05:55:43;;;;;;;17.27;7.73;;;2.80;99.90;;;;;;5096507;28;20039;-83
2022/01/29 05:58:09;;;;;;;18.17;7.07;;;2.80;99.90;;;;;;5114877;28;20084;-85
2022/01/29 06:00:35;;;;;;;19.33;7.10;;;2.80;99.90;;;;;;5096374;28;20536;-83
2022/01/29 06:03:06;;;;;;;18.70;7.20;;;2.80;99.90;;;;;;5096820;28;20380;-84
2022/01/29 06:05:33;;;;;;;17.05;7.32;;;2.80;99.90;;;;;;5096456;28;20031;-86
2022/01/29 06:07:59;;;;;;;19.57;7.53;;;2.80;99.90;;;;;;5096121;28;20028;-87
2022/01/29 06:10:27;;;;;;;13.57;7.07;;;2.80;99.90;;;;;;5096235;28;20141;-90
2022/01/29 06:13:04;;;;;;;17.60;7.77;;;2.90;99.90;;;;;;5096900;28;20024;-90
2022/01/29 06:15:32;;;;;;;19.60;7.70;;;2.80;99.90;;;;;;5114092;28;20038;-82
2022/01/29 06:17:58;;;;;;;18.77;7.50;;;2.80;99.90;;;;;;5096542;28;20032;-84
2022/01/29 06:20:25;;;;;;;16.33;6.67;;;2.80;99.90;;;;;;5095990;28;20114;-84
2022/01/29 06:22:50;;;;;;;17.53;7.23;;;2.80;99.90;;;;;;5096584;28;20077;-84
2022/01/29 06:25:16;;;;;;;13.50;6.53;;;2.80;99.90;;;;;;5114605;28;20055;-86
2022/01/29 06:27:42;;;;;;;18.63;7.57;;;2.90;99.90;;;;;;5114473;28;20456;-85
2022/01/29 06:30:07;;;;;;;15.33;6.97;;;2.90;99.90;;;;;;5113696;28;20031;-85
2022/01/29 06:32:33;;;;;;;17.33;7.57;;;2.90;99.90;;;;;;5096027;28;20050;-85
2022/01/29 06:34:59;;;;;;;17.47;7.20;;;2.90;99.90;;;;;;5114217;28;20035;-82
2022/01/29 06:37:24;;;;;;;15.27;6.80;;;2.90;99.90;;;;;;5095609;28;20476;-83
2022/01/29 06:39:50;;;;;;;13.87;7.20;;;2.90;99.90;;;;;;5096090;28;20024;-83
2022/01/29 06:42:15;;;;;;;13.27;6.43;;;2.90;99.90;;;;;;5095654;28;20111;-86
2022/01/29 06:44:41;;;;;;;17.67;7.03;;;2.90;99.90;;;;;;5095727;28;20029;-86
2022/01/29 06:47:07;;;;;;;15.77;7.10;;;2.90;99.90;;;;;;5096302;28;20027;-86
2022/01/29 06:49:32;;;;;;;14.93;7.10;;;2.90;99.90;;;;;;5095855;28;20035;-86
2022/01/29 06:51:58;;;;;;;19.07;8.03;;;2.90;99.90;;;;;;5096272;28;20027;-86
2022/01/29 06:54:23;;;;;;;17.23;8.20;;;2.90;99.90;;;;;;5095754;28;20031;-86
2022/01/29 06:56:49;;;;;;;19.40;7.90;;;2.90;99.90;;;;;;5114110;28;20032;-86
2022/01/29 06:59:15;;;;;;;15.17;7.20;;;2.90;99.90;;;;;;5113519;28;20028;-86
2022/01/29 07:01:40;;;;;;;18.03;7.80;;;2.90;99.90;;;;;;5098661;28;20035;-86
2022/01/29 07:04:06;;;;;;;18.97;8.37;;;2.90;99.90;;;;;;5100205;28;20031;-85
2022/01/29 07:06:32;;;;;;;20.90;9.33;;;2.90;99.90;;;;;;5099595;28;20031;-86
2022/01/29 07:08:58;;;;;;;21.37;9.00;;;2.90;99.90;;;;;;5100097;28;20058;-86
2022/01/29 07:11:25;;;;;;;16.17;8.53;;;3.00;99.90;;;;;;5099553;28;20107;-86
2022/01/29 07:14:00;;;;;;;18.03;9.30;;;3.00;99.90;;;;;;5099948;28;20030;-86
2022/01/29 07:16:27;;;;;;;20.47;9.03;;;2.90;99.90;;;;;;5117313;28;20060;-86
2022/01/29 07:18:52;;;;;;;20.30;9.23;;;2.90;99.90;;;;;;5100014;28;20032;-88
2022/01/29 07:21:18;;;;;;;16.73;8.33;;;3.00;99.90;;;;;;5100227;28;20034;-89
2022/01/29 07:23:44;;;;;;;17.73;8.17;;;3.00;99.90;;;;;;5099402;28;20123;-85
2022/01/29 07:26:10;;;;;;;24.73;9.00;;;3.00;99.90;;;;;;5117756;28;20472;-85
2022/01/29 07:28:35;;;;;;;17.93;8.60;;;3.10;99.90;;;;;;5099488;28;20073;-85
2022/01/29 07:31:04;;;;;;;17.13;8.57;;;3.10;99.90;;;;;;5117742;28;20102;-86
2022/01/29 07:33:30;;;;;;;20.93;8.37;;;3.10;99.90;;;;;;5099398;28;20023;-85
2022/01/29 07:35:55;;;;;;;17.47;8.70;;;3.10;99.90;;;;;;5099102;28;20476;-88
2022/01/29 07:38:21;;;;;;;17.33;8.07;;;3.10;99.90;;;;;;5099756;28;20032;-94
2022/01/29 07:40:47;;;;;;;15.47;7.63;;;3.10;99.90;;;;;;5099722;28;20030;-87
2022/01/29 07:43:13;;;;;;;17.97;8.23;;;3.10;99.90;;;;;;5099415;28;20031;-88
2022/01/29 07:45:39;;;;;;;15.90;8.03;;;3.20;99.90;;;;;;5099307;28;20032;-88
2022/01/29 07:48:05;;;;;;;15.33;7.27;;;3.20;99.90;;;;;;5099800;28;20032;-86
2022/01/29 07:50:31;;;;;;;14.60;7.03;;;3.20;99.90;;;;;;5099055;28;20034;-85
2022/01/29 07:52:59;;;;;;;13.77;7.07;;;3.20;99.90;;;;;;5099296;28;20032;-85
2022/01/29 07:55:29;;;;;;;16.20;7.80;;;3.30;99.90;;;;;;5098679;28;20130;-85
2022/01/29 07:57:56;;;;;;;15.00;7.17;;;3.30;99.90;;;;;;5099523;28;20043;-84
2022/01/29 08:00:21;;;;;;;16.53;7.40;;;3.30;99.90;;;;;;5098967;28;20054;-84
2022/01/29 08:02:47;;;;;;;18.17;8.47;;;3.40;99.90;;;;;;5097916;28;20023;-85
2022/01/29 08:05:12;;;;;;;16.77;7.53;;;3.40;99.90;;;;;;5098333;28;20106;-85
2022/01/29 08:07:38;;;;;;;16.03;7.23;;;3.40;99.90;;;;;;5116114;28;20083;-85
2022/01/29 08:10:05;;;;;;;14.53;7.53;;;3.50;99.90;;;;;;5098854;28;20024;-86
2022/01/29 08:12:31;;;;;;;15.30;7.63;;;3.40;99.90;;;;;;5115548;28;20032;-87
2022/01/29 08:14:57;;;;;;;16.13;7.90;;;3.50;99.90;;;;;;5098897;28;20135;-86
2022/01/29 08:17:22;;;;;;;15.20;7.90;;;3.50;99.90;;;;;;5098479;28;20039;-86
2022/01/29 08:19:49;;;;;;;16.90;7.50;;;3.40;99.90;;;;;;5098252;28;20031;-86
2022/01/29 08:22:18;;;;;;;16.23;7.83;;;3.40;99.90;;;;;;5097763;28;20023;-83
2022/01/29 08:24:45;;;;;;;16.13;8.10;;;3.40;99.90;;;;;;5097635;28;20769;-84
2022/01/29 08:27:10;;;;;;;16.60;7.90;;;3.40;99.90;;;;;;5098054;28;20052;-84
2022/01/29 08:29:36;;;;;;;15.40;7.90;;;3.40;99.90;;;;;;5096705;28;20026;-84
2022/01/29 08:32:03;;;;;;;16.07;7.43;;;3.40;99.90;;;;;;5115979;28;20154;-83
2022/01/29 08:34:28;;;;;;;14.70;6.70;;;3.40;99.90;;;;;;5093436;28;20026;-82
2022/01/29 08:36:57;;;;;;;13.43;6.67;;;3.40;99.90;;;;;;5098108;28;20036;-82
2022/01/29 08:39:24;;;;;;;15.53;7.43;;;3.40;99.90;;;;;;5097729;28;20492;-82
2022/01/29 08:41:50;;;;;;;13.17;7.00;;;3.40;99.90;;;;;;5095142;28;20027;-85
2022/01/29 08:44:16;;;;;;;14.47;6.90;;;3.40;99.90;;;;;;5097487;28;20016;-85
2022/01/29 08:46:41;;;;;;;14.87;7.40;;;3.30;99.90;;;;;;5096431;28;20053;-86
2022/01/29 08:49:07;;;;;;;15.87;6.73;;;3.40;99.90;;;;;;5097728;28;20050;-86
2022/01/29 08:51:33;;;;;;;15.80;7.43;;;3.40;99.90;;;;;;5097455;28;20024;-87
2022/01/29 08:53:58;;;;;;;17.20;7.47;;;3.40;99.90;;;;;;5096927;28;20030;-81
2022/01/29 08:56:24;;;;;;;17.73;7.00;;;3.40;99.90;;;;;;5097966;28;20032;-85
2022/01/29 08:58:50;;;;;;;16.53;7.40;;;3.40;99.90;;;;;;5097074;28;20095;-86
2022/01/29 09:01:15;;;;;;;14.73;7.00;;;3.50;99.90;;;;;;5097059;28;20024;-85
2022/01/29 09:03:41;;;;;;;15.00;7.50;;;3.50;99.90;;;;;;5115254;28;20020;-87
2022/01/29 09:06:10;;;;;;;16.20;7.47;;;3.60;99.90;;;;;;5115761;28;20032;-86
2022/01/29 09:08:36;;;;;;;14.60;6.87;;;3.60;99.90;;;;;;5097460;28;20020;-87
2022/01/29 09:11:02;;;;;;;15.43;7.40;;;3.60;99.90;;;;;;5097827;28;20031;-87
2022/01/29 09:13:28;;;;;;;15.57;7.27;;;3.70;99.90;;;;;;5096900;28;20461;-87
2022/01/29 09:15:55;;;;;;;16.40;7.23;;;3.70;99.90;;;;;;5115501;28;20476;-87
2022/01/29 09:18:21;;;;;;;18.53;6.80;;;3.80;99.90;;;;;;5096014;28;20050;-92
2022/01/29 09:20:47;;;;;;;13.70;6.90;;;3.80;99.90;;;;;;5091083;28;20015;-90
2022/01/29 09:23:13;;;;;;;14.53;6.87;;;3.80;99.90;;;;;;5098170;28;20480;-87
2022/01/29 09:25:39;;;;;;;14.67;6.63;;;3.80;99.90;;;;;;5113918;28;20049;-84
2022/01/29 09:28:07;;;;;;;16.83;7.20;;;3.80;99.90;;;;;;5096273;28;20026;-89
2022/01/29 09:30:34;;;;;;;16.37;7.53;;;3.70;99.90;;;;;;5096297;28;20028;-88
2022/01/29 09:33:00;;;;;;;15.00;7.23;;;3.80;99.90;;;;;;5096831;28;20019;-87
2022/01/29 09:35:27;;;;;;;18.20;7.03;;;3.70;99.90;;;;;;5095640;28;20164;-88
2022/01/29 09:37:54;;;;;;;16.40;7.80;;;3.80;99.90;;;;;;5096682;28;20020;-87
2022/01/29 09:40:20;;;;;;;15.37;7.30;;;3.80;99.90;;;;;;5114832;28;20020;-87
2022/01/29 09:42:49;;;;;;;16.90;7.20;;;3.80;99.90;;;;;;5096103;28;20199;-89
2022/01/29 09:45:16;;;;;;;14.37;7.10;;;3.80;99.90;;;;;;5096241;28;20024;-87
2022/01/29 09:47:45;;;;;;;15.73;7.17;;;3.80;99.90;;;;;;5095989;28;20027;-88
2022/01/29 09:50:13;;;;;;;13.93;6.70;;;3.80;99.90;;;;;;5096052;28;20016;-89
2022/01/29 09:52:39;;;;;;;16.37;6.70;;;3.80;99.90;;;;;;5096035;28;20093;-90
2022/01/29 09:55:06;;;;;;;17.17;7.10;;;3.90;99.90;;;;;;5114884;28;20445;-87
2022/01/29 09:57:31;;;;;;;14.83;6.73;;;3.90;99.90;;;;;;5096157;28;20066;-90
2022/01/29 09:59:57;;;;;;;17.03;7.03;;;3.80;99.90;;;;;;5096477;28;20073;-91
2022/01/29 10:02:23;;;;;;;16.97;6.83;;;3.90;99.90;;;;;;5096810;28;20038;-92
2022/01/29 10:04:52;;;;;;;13.03;6.90;;;3.90;99.90;;;;;;5095528;28;20468;-83
2022/01/29 10:07:29;;;;;;;18.13;6.33;;;3.80;99.90;;;;;;5096295;28;20482;-85
2022/01/29 10:09:56;;;;;;;14.13;6.80;;;3.80;99.90;;;;;;5073961;28;20024;-83
2022/01/29 10:12:27;;;;;;;14.03;6.37;;;3.80;99.90;;;;;;5095985;28;20066;-83
2022/01/29 10:15:01;;;;;;;14.70;7.03;;;3.80;99.90;;;;;;5095958;28;20056;-85
2022/01/29 10:17:51;;;;;;;15.30;6.73;;;3.80;99.90;;;;;;5095595;28;20044;-84
2022/01/29 10:20:34;;;;;;;13.67;6.27;;;3.80;99.90;;;;;;5114985;28;20016;-96
2022/01/29 10:23:01;;;;;;;16.50;7.07;;;3.80;99.90;;;;;;5093644;28;20076;-89
2022/01/29 10:25:30;;;;;;;16.27;6.63;;;3.80;99.90;;;;;;5092578;28;20059;-88
2022/01/29 10:28:05;;;;;;;15.27;6.47;;;3.80;99.90;;;;;;5093390;28;20076;-86
2022/01/29 10:30:30;;;;;;;13.60;6.40;;;3.80;99.90;;;;;;5091909;28;20042;-87
2022/01/29 10:33:18;;;;;;;12.77;5.87;;;3.80;99.90;;;;;;5092304;28;20544;-87
2022/01/29 10:35:48;;;;;;;16.80;5.60;;;3.80;99.90;;;;;;5078362;28;20048;-87
2022/01/29 10:38:29;;;;;;;13.13;6.10;;;3.90;99.90;;;;;;5092375;28;20031;-87
2022/01/29 10:41:22;;;;;;;12.60;5.83;;;3.90;99.90;;;;;;5093264;28;20028;-87
2022/01/29 10:44:15;;;;;;;12.60;5.70;;;4.00;99.90;;;;;;5092209;28;20050;-88
2022/01/29 10:46:52;;;;;;;11.70;5.70;;;4.00;99.90;;;;;;5092128;28;20035;-87
2022/01/29 10:49:25;;;;;;;9.67;5.13;;;4.00;99.90;;;;;;5092105;28;20082;-87
2022/01/29 10:52:00;;;;;;;12.63;5.23;;;4.00;99.90;;;;;;5076758;28;20050;-80
2022/01/29 10:54:27;;;;;;;10.30;5.47;;;4.10;99.90;;;;;;5089862;28;20055;-81
2022/01/29 10:56:56;;;;;;;8.97;5.07;;;4.00;99.90;;;;;;5090304;28;20043;-77
2022/01/29 10:59:23;;;;;;;9.70;4.67;;;4.00;99.90;;;;;;5092981;28;20466;-78
2022/01/29 11:01:56;;;;;;;10.13;5.07;;;4.00;99.90;;;;;;5092337;28;20069;-78
2022/01/29 11:04:25;;;;;;;11.90;5.30;;;4.00;99.90;;;;;;5091955;28;20050;-79
2022/01/29 11:06:52;;;;;;;10.77;5.10;;;4.00;99.90;;;;;;5091122;28;20028;-80
2022/01/29 11:09:18;;;;;;;12.87;5.20;;;4.10;99.90;;;;;;5091936;28;20024;-87
2022/01/29 11:11:45;;;;;;;11.30;5.03;;;4.10;99.90;;;;;;5091670;28;20085;-79
2022/01/29 11:14:18;;;;;;;8.13;4.33;;;4.10;99.90;;;;;;5092682;28;20038;-78
2022/01/29 11:16:45;;;;;;;9.33;4.40;;;4.10;99.90;;;;;;5090405;28;20043;-78
2022/01/29 11:19:11;;;;;;;8.83;4.20;;;4.10;99.90;;;;;;5092929;28;20020;-80
2022/01/29 11:21:38;;;;;;;9.47;3.80;;;4.20;99.90;;;;;;5090585;28;20025;-80
2022/01/29 11:24:09;;;;;;;7.57;3.87;;;4.10;99.90;;;;;;5089323;28;20035;-83
2022/01/29 11:26:36;;;;;;;8.50;4.00;;;4.10;99.90;;;;;;5091744;28;20048;-80
2022/01/29 11:29:21;;;;;;;9.10;3.87;;;4.10;99.90;;;;;;5092462;28;20114;-83
2022/01/29 11:31:47;;;;;;;9.50;4.00;;;4.20;99.90;;;;;;5090871;28;20469;-78
2022/01/29 11:34:13;;;;;;;7.57;3.73;;;4.20;99.90;;;;;;5091289;28;20030;-78
2022/01/29 11:36:48;;;;;;;6.03;3.67;;;4.20;99.90;;;;;;5090862;28;20036;-79
2022/01/29 11:39:25;;;;;;;8.10;4.13;;;4.20;99.90;;;;;;5091916;28;20530;-81
2022/01/29 11:42:27;;;;;;;12.17;3.97;;;4.10;99.90;;;;;;5091294;28;20024;-79
2022/01/29 11:44:53;;;;;;;;;;;4.20;99.90;;;;;;5093100;28;20022;-79
2022/01/29 11:47:25;;;;;;;6.30;3.40;;;4.20;99.90;;;;;;5093754;28;19908;-80
2022/01/29 11:50:19;;;;;;;7.13;3.43;;;4.20;99.90;;;;;;5095890;28;20461;-79
2022/01/29 11:52:57;;;;;;;7.53;3.67;;;4.30;99.90;;;;;;5094955;28;20024;-80
2022/01/29 11:55:33;;;;;;;7.17;3.30;;;4.20;99.90;;;;;;5080654;28;20032;-82
2022/01/29 11:58:20;;;;;;;6.97;3.63;;;4.20;99.90;;;;;;5074644;28;20025;-79
2022/01/29 12:01:05;;;;;;;6.13;3.43;;;4.30;99.90;;;;;;5074096;28;20032;-78
2022/01/29 12:03:38;;;;;;;8.90;3.80;;;4.30;99.90;;;;;;5075847;28;20020;-82
2022/01/29 12:09:07;;;;;;;7.97;3.50;;;4.40;99.90;;;;;;5075541;28;20033;-78
2022/01/29 12:11:39;;;;;;;8.13;3.70;;;4.40;99.90;;;;;;5074789;28;20036;-82
2022/01/29 12:14:13;;;;;;;7.57;3.78;;;4.40;99.90;;;;;;5075573;28;20028;-79
2022/01/29 12:16:55;;;;;;;6.13;3.10;;;4.40;99.90;;;;;;5074015;28;20036;-79
2022/01/29 12:19:41;;;;;;;6.05;3.70;;;4.40;99.90;;;;;;5074819;28;20112;-82
2022/01/29 12:22:12;;;;;;;7.47;3.70;;;4.40;99.90;;;;;;5074510;28;20032;-80
2022/01/29 12:24:40;;;;;;;6.17;3.63;;;4.40;99.90;;;;;;5074020;28;20025;-82
2022/01/29 12:27:06;;;;;;;5.73;3.43;;;4.30;99.90;;;;;;5073985;28;20053;-79
2022/01/29 12:29:33;;;;;;;6.30;3.60;;;4.30;99.90;;;;;;5073155;28;20170;-79
2022/01/29 12:31:59;;;;;;;6.73;3.80;;;4.30;99.90;;;;;;5074262;28;20025;-79
2022/01/29 12:34:27;;;;;;;7.33;4.03;;;4.30;99.90;;;;;;5075386;28;20047;-79
2022/01/29 12:37:12;;;;;;;6.47;3.57;;;4.40;99.90;;;;;;5073808;28;20489;-79
2022/01/29 12:39:40;;;;;;;10.37;3.73;;;4.40;99.90;;;;;;5074143;28;20020;-79
2022/01/29 12:45:01;;;;;;;7.33;3.50;;;4.40;99.90;;;;;;5074786;28;20025;-77
2022/01/29 12:47:32;;;;;;;6.20;3.80;;;4.40;99.90;;;;;;5073643;28;20036;-77
2022/01/29 12:49:58;;;;;;;6.07;3.70;;;4.50;99.90;;;;;;5071004;28;20511;-77
2022/01/29 12:52:26;;;;;;;6.57;3.87;;;4.50;99.90;;;;;;5073644;28;20365;-80
2022/01/29 12:54:55;;;;;;;7.50;3.97;;;4.50;99.90;;;;;;5073074;28;20032;-75
2022/01/29 12:57:21;;;;;;;6.67;3.60;;;4.50;99.90;;;;;;5072960;28;20039;-74
2022/01/29 12:59:48;;;;;;;6.33;3.63;;;4.70;99.90;;;;;;5071267;28;20107;-74
2022/01/29 13:02:14;;;;;;;5.27;3.23;;;4.80;99.90;;;;;;5072871;28;20021;-78
2022/01/29 13:04:44;;;;;;;7.23;3.60;;;4.90;99.90;;;;;;5072681;28;20028;-77
2022/01/29 13:07:12;;;;;;;6.17;3.13;;;4.90;99.90;;;;;;5071909;28;20032;-77
2022/01/29 13:09:38;;;;;;;6.40;3.20;;;4.80;99.90;;;;;;5072529;28;20020;-79
2022/01/29 13:12:06;;;;;;;6.73;3.50;;;5.00;99.90;;;;;;5073529;28;20067;-80